createdAt,value
2023-05-24T00:01:29.241Z,101337.41
2023-05-24T00:04:00.918Z,101332.09
2023-05-24T00:06:34.818Z,101347.97
2023-05-24T00:09:06.169Z,101340.91
2023-05-24T00:11:37.549Z,101332.97
2023-05-24T00:14:08.957Z,101340.03
2023-05-24T00:16:41.393Z,101299.47
2023-05-24T00:19:18.379Z,101286.25
2023-05-24T00:21:49.981Z,101321.50
2023-05-24T00:24:21.634Z,101312.69
2023-05-24T00:26:53.014Z,101328.56
2023-05-24T00:29:24.429Z,101322.41
2023-05-24T00:31:55.881Z,101325.91
2023-05-24T00:34:27.222Z,101317.97
2023-05-24T00:36:58.630Z,101325.00
2023-05-24T00:39:29.945Z,101318.81
2023-05-24T00:42:02.166Z,101309.94
2023-05-24T00:44:33.483Z,101309.94
2023-05-24T00:47:05.258Z,101306.41
2023-05-24T00:49:36.712Z,101312.63
2023-05-24T00:52:08.916Z,101302.94
2023-05-24T00:54:40.770Z,101309.09
2023-05-24T00:57:14.051Z,101305.53
2023-05-24T00:59:46.270Z,101310.81
2023-05-24T01:02:18.387Z,101308.19
2023-05-24T01:04:49.768Z,101299.38
2023-05-24T01:07:54.404Z,101309.91
2023-05-24T01:10:39.208Z,101319.59
2023-05-24T01:13:23.541Z,101314.31
2023-05-24T01:16:07.637Z,101309.00
2023-05-24T01:18:44.201Z,101301.06
2023-05-24T01:21:18.543Z,101301.94
2023-05-24T01:24:22.660Z,101302.81
2023-05-24T01:27:07.612Z,101303.69
2023-05-24T01:29:39.186Z,101266.72
2023-05-24T01:32:10.544Z,101299.31
2023-05-24T01:34:41.873Z,101296.66
2023-05-24T01:37:13.267Z,101292.25
2023-05-24T01:39:44.729Z,101293.16
2023-05-24T01:43:00.651Z,101289.63
2023-05-24T01:45:39.567Z,101266.75
2023-05-24T01:48:31.126Z,101289.69
2023-05-24T01:51:07.742Z,101280.00
2023-05-24T01:53:44.804Z,101290.59
2023-05-24T01:56:19.480Z,101291.47
2023-05-24T01:58:53.286Z,101283.50
2023-05-24T02:01:24.971Z,101286.16
2023-05-24T02:03:56.356Z,101276.44
2023-05-24T02:06:27.780Z,101270.28
2023-05-24T02:08:59.099Z,101267.66
2023-05-24T02:11:30.544Z,101262.38
2023-05-24T02:14:01.874Z,101264.16
2023-05-24T02:16:33.350Z,101267.69
2023-05-24T02:19:04.675Z,101270.34
2023-05-24T02:21:36.389Z,101250.94
2023-05-24T02:24:07.952Z,101266.81
2023-05-24T02:26:39.374Z,101271.22
2023-05-24T02:29:10.782Z,101264.19
2023-05-24T02:31:42.520Z,101266.81
2023-05-24T02:34:13.873Z,101282.66
2023-05-24T02:36:45.710Z,101282.66
2023-05-24T02:39:17.621Z,101284.41
2023-05-24T02:41:51.024Z,101285.28
2023-05-24T02:44:22.352Z,101284.41
2023-05-24T02:46:53.703Z,101273.78
2023-05-24T02:49:25.008Z,101274.69
2023-05-24T02:51:56.328Z,101275.56
2023-05-24T02:54:27.648Z,101281.75
2023-05-24T02:56:59.100Z,101278.16
2023-05-24T02:59:31.148Z,101277.28
2023-05-24T03:02:02.608Z,101282.56
2023-05-24T03:04:34.041Z,101284.34
2023-05-24T03:07:05.960Z,101281.69
2023-05-24T03:09:37.343Z,101280.81
2023-05-24T03:12:08.837Z,101283.44
2023-05-24T03:14:40.217Z,101291.38
2023-05-24T03:17:11.548Z,101267.63
2023-05-24T03:19:42.847Z,101289.59
2023-05-24T03:22:14.176Z,101279.88
2023-05-24T03:24:46.330Z,101286.94
2023-05-24T03:27:17.655Z,101285.16
2023-05-24T03:29:49.056Z,101284.28
2023-05-24T03:32:20.373Z,101269.31
2023-05-24T03:34:51.813Z,101278.97
2023-05-24T03:37:23.178Z,101289.56
2023-05-24T03:39:54.504Z,101291.31
2023-05-24T03:42:25.902Z,101288.66
2023-05-24T03:44:57.237Z,101284.22
2023-05-24T03:47:28.613Z,101286.84
2023-05-24T03:50:00.138Z,101286.84
2023-05-24T03:52:31.555Z,101278.03
2023-05-24T03:55:02.895Z,101278.91
2023-05-24T03:57:34.273Z,101288.59
2023-05-24T04:00:07.375Z,101286.84
2023-05-24T04:02:38.868Z,101287.69
2023-05-24T04:05:10.808Z,101282.38
2023-05-24T04:07:43.736Z,101289.44
2023-05-24T04:10:15.090Z,101275.34
2023-05-24T04:12:46.456Z,101295.66
2023-05-24T04:15:17.860Z,101301.81
2023-05-24T04:17:54.867Z,101300.06
2023-05-24T04:20:27.742Z,101302.72
2023-05-24T04:22:59.249Z,101303.59
2023-05-24T04:25:30.677Z,101306.22
2023-05-24T04:28:04.626Z,101304.44
2023-05-24T04:30:36.694Z,101307.09
2023-05-24T04:33:08.388Z,101313.28
2023-05-24T04:35:40.689Z,101307.97
2023-05-24T04:38:12.698Z,101315.88
2023-05-24T04:40:44.377Z,101311.47
2023-05-24T04:43:15.842Z,101307.91
2023-05-24T04:45:47.457Z,101314.09
2023-05-24T04:48:19.489Z,101307.97
2023-05-24T04:50:52.227Z,101292.09
2023-05-24T04:53:24.121Z,101307.97
2023-05-24T04:55:55.485Z,101313.28
2023-05-24T04:58:26.835Z,101308.84
2023-05-24T05:00:58.207Z,101310.63
2023-05-24T05:03:29.577Z,101313.31
2023-05-24T05:06:01.105Z,101309.75
2023-05-24T05:08:33.543Z,101300.06
2023-05-24T05:11:04.894Z,101304.44
2023-05-24T05:13:36.241Z,101315.00
2023-05-24T05:16:07.699Z,101302.69
2023-05-24T05:18:39.115Z,101308.88
2023-05-24T05:21:10.743Z,101318.53
2023-05-24T05:23:42.056Z,101325.59
2023-05-24T05:26:13.392Z,101307.94
2023-05-24T05:28:44.693Z,101320.25
2023-05-24T05:31:16.280Z,101314.97
2023-05-24T05:33:47.707Z,101329.97
2023-05-24T05:36:19.364Z,101334.31
2023-05-24T05:38:50.719Z,101332.56
2023-05-24T05:41:22.422Z,101332.53
2023-05-24T05:43:53.740Z,101330.75
2023-05-24T05:46:25.112Z,101320.19
2023-05-24T05:48:56.500Z,101343.06
2023-05-24T05:51:27.943Z,101334.13
2023-05-24T05:53:59.316Z,101333.19
2023-05-24T05:56:30.718Z,101326.09
2023-05-24T05:59:02.041Z,101334.06
2023-05-24T06:01:33.423Z,101334.06
2023-05-24T06:04:04.936Z,101306.72
2023-05-24T06:06:36.372Z,101334.91
2023-05-24T06:09:08.316Z,101327.84
2023-05-24T06:11:42.967Z,101344.66
2023-05-24T06:14:18.497Z,101338.38
2023-05-24T06:16:50.162Z,101339.22
2023-05-24T06:19:21.713Z,101315.44
2023-05-24T06:21:54.139Z,101335.69
2023-05-24T06:24:25.924Z,101351.63
2023-05-24T06:26:57.981Z,101371.09
2023-05-24T06:29:29.295Z,101364.06
2023-05-24T06:32:00.787Z,101348.22
2023-05-24T06:34:32.131Z,101353.50
2023-05-24T06:37:03.830Z,101346.44
2023-05-24T06:39:35.151Z,101369.38
2023-05-24T06:42:06.692Z,101363.19
2023-05-24T06:44:38.029Z,101379.97
2023-05-24T06:47:09.576Z,101350.84
2023-05-24T06:49:41.841Z,101367.56
2023-05-24T06:52:13.772Z,101328.78
2023-05-24T06:54:45.384Z,101374.50
2023-05-24T06:57:16.687Z,101385.00
2023-05-24T06:59:47.995Z,101383.16
2023-05-24T07:02:23.974Z,101381.22
2023-05-24T07:04:55.569Z,101387.25
2023-05-24T07:07:26.980Z,101372.16
2023-05-24T07:09:58.306Z,101375.59
2023-05-24T07:12:29.677Z,101389.63
2023-05-24T07:15:01.124Z,101393.06
2023-05-24T07:17:32.901Z,101392.13
2023-05-24T07:20:09.515Z,101404.34
2023-05-24T07:22:41.278Z,101394.56
2023-05-24T07:25:12.702Z,101399.81
2023-05-24T07:27:44.076Z,101410.44
2023-05-24T07:30:27.723Z,101382.25
2023-05-24T07:33:03.214Z,101405.81
2023-05-24T07:35:35.052Z,101406.28
2023-05-24T07:38:06.916Z,101412.25
2023-05-24T07:40:38.280Z,101415.66
2023-05-24T07:43:09.646Z,101413.69
2023-05-24T07:45:41.231Z,101416.34
2023-05-24T07:48:12.787Z,101407.63
2023-05-24T07:50:48.407Z,101413.97
2023-05-24T07:53:19.946Z,101398.38
2023-05-24T07:55:51.666Z,101401.03
2023-05-24T07:58:23.035Z,101416.91
2023-05-24T08:00:54.416Z,101400.94
2023-05-24T08:03:25.932Z,101406.34
2023-05-24T08:05:57.911Z,101419.66
2023-05-24T08:08:29.580Z,101416.88
2023-05-24T08:11:01.083Z,101402.63
2023-05-24T08:13:32.406Z,101423.69
2023-05-24T08:16:03.859Z,101422.69
2023-05-24T08:18:35.334Z,101420.88
2023-05-24T08:21:06.859Z,101419.00
2023-05-24T08:23:38.372Z,101406.66
2023-05-24T08:26:09.831Z,101380.06
2023-05-24T08:28:41.242Z,101424.75
2023-05-24T08:31:12.692Z,101422.91
2023-05-24T08:33:44.612Z,101422.84
2023-05-24T08:36:19.650Z,101422.81
2023-05-24T08:38:51.025Z,101435.16
2023-05-24T08:41:22.577Z,101427.19
2023-05-24T08:43:58.605Z,101429.66
2023-05-24T08:46:30.638Z,101421.69
2023-05-24T08:49:07.428Z,101386.41
2023-05-24T08:51:39.774Z,101427.72
2023-05-24T08:54:13.613Z,101427.75
2023-05-24T08:56:45.111Z,101436.78
2023-05-24T08:59:17.985Z,101433.28
2023-05-24T09:01:53.764Z,101422.66
2023-05-24T09:04:27.559Z,101440.34
2023-05-24T09:06:59.829Z,101459.00
2023-05-24T09:09:34.224Z,101441.47
2023-05-24T09:12:08.495Z,101458.34
2023-05-24T09:14:45.444Z,101460.19
2023-05-24T09:17:16.989Z,101462.09
2023-05-24T09:19:51.614Z,101460.34
2023-05-24T09:22:25.930Z,101471.75
2023-05-24T09:25:01.543Z,101476.13
2023-05-24T09:27:34.982Z,101470.94
2023-05-24T09:30:15.481Z,101473.03
2023-05-24T09:33:00.866Z,101478.53
2023-05-24T09:35:32.570Z,101478.69
2023-05-24T09:38:03.999Z,101480.44
2023-05-24T09:40:35.373Z,101479.53
2023-05-24T09:43:09.523Z,101481.22
2023-05-24T09:45:46.658Z,101487.22
2023-05-24T09:48:20.486Z,101478.50
2023-05-24T09:51:05.241Z,101483.94
2023-05-24T09:53:37.076Z,101483.94
2023-05-24T09:56:09.794Z,101487.22
2023-05-24T09:58:42.235Z,101469.81
2023-05-24T10:01:17.879Z,101484.00
2023-05-24T10:03:54.334Z,101466.47
2023-05-24T10:06:25.858Z,101475.63
2023-05-24T10:08:58.063Z,101495.66
2023-05-24T10:11:29.634Z,101479.69
2023-05-24T10:14:00.976Z,101463.31
2023-05-24T10:16:32.906Z,101490.00
2023-05-24T10:19:05.982Z,101490.19
2023-05-24T10:21:42.093Z,101488.47
2023-05-24T10:24:13.863Z,101486.66
2023-05-24T10:26:48.719Z,101481.25
2023-05-24T10:29:34.809Z,101484.63
2023-05-24T10:32:06.710Z,101501.88
2023-05-24T10:34:39.111Z,101505.16
2023-05-24T10:37:10.671Z,101505.69
2023-05-24T10:39:42.068Z,101506.06
2023-05-24T10:42:13.634Z,101512.03
2023-05-24T10:44:45.286Z,101511.34
2023-05-24T10:47:20.063Z,101503.50
2023-05-24T10:49:55.110Z,101509.63
2023-05-24T10:52:36.153Z,101505.06
2023-05-24T10:55:09.623Z,101503.69
2023-05-24T10:57:41.678Z,101501.63
2023-05-24T11:00:34.754Z,101504.53
2023-05-24T11:03:09.089Z,101507.56
2023-05-24T11:05:47.760Z,101509.13
2023-05-24T11:08:29.425Z,101502.25
2023-05-24T11:11:24.528Z,101507.38
2023-05-24T11:13:57.850Z,101496.03
2023-05-24T11:16:37.372Z,101498.81
2023-05-24T11:19:29.097Z,101495.25
2023-05-24T11:22:02.817Z,101495.44
2023-05-24T11:24:34.586Z,101490.47
2023-05-24T11:27:06.885Z,101498.19
2023-05-24T11:29:43.308Z,101490.19
2023-05-24T11:32:16.788Z,101502.31
2023-05-24T11:34:49.498Z,101506.50
2023-05-24T11:37:28.626Z,101508.78
2023-05-24T11:40:09.979Z,101508.38
2023-05-24T11:42:41.704Z,101479.72
2023-05-24T11:45:16.395Z,101498.44
2023-05-24T11:47:49.186Z,101500.88
2023-05-24T11:50:25.252Z,101502.75
2023-05-24T11:53:04.131Z,101507.03
2023-05-24T11:55:36.639Z,101492.34
2023-05-24T11:58:19.295Z,101495.41
2023-05-24T12:00:51.460Z,101511.63
2023-05-24T12:03:22.997Z,101505.16
2023-05-24T12:05:57.225Z,101500.34
2023-05-24T12:08:28.525Z,101521.72
2023-05-24T12:10:59.996Z,101522.47
2023-05-24T12:13:31.403Z,101522.16
2023-05-24T12:16:02.888Z,101521.72
2023-05-24T12:18:34.282Z,101512.41
2023-05-24T12:21:11.235Z,101515.44
2023-05-24T12:23:42.531Z,101529.88
2023-05-24T12:26:14.744Z,101530.09
2023-05-24T12:28:52.585Z,101528.72
2023-05-24T12:31:24.078Z,101529.44
2023-05-24T12:33:55.623Z,101526.03
2023-05-24T12:36:29.413Z,101521.06
2023-05-24T12:39:04.889Z,101530.25
2023-05-24T12:41:36.425Z,101539.69
2023-05-24T12:44:09.809Z,101536.53
2023-05-24T12:46:41.193Z,101538.38
2023-05-24T12:49:12.769Z,101542.75
2023-05-24T12:51:44.658Z,101538.25
2023-05-24T12:54:19.596Z,101528.16
2023-05-24T12:56:55.609Z,101525.56
2023-05-24T12:59:28.434Z,101525.66
2023-05-24T13:02:00.618Z,101532.41
2023-05-24T13:04:33.622Z,101527.84
2023-05-24T13:07:05.544Z,101527.50
2023-05-24T13:09:36.948Z,101486.41
2023-05-24T13:12:08.874Z,101532.78
2023-05-24T13:14:40.489Z,101534.31
2023-05-24T13:17:11.997Z,101529.84
2023-05-24T13:19:43.729Z,101533.59
2023-05-24T13:22:15.405Z,101533.94
2023-05-24T13:24:47.105Z,101528.22
2023-05-24T13:27:18.569Z,101534.59
2023-05-24T13:30:00.338Z,101541.00
2023-05-24T13:32:33.326Z,101546.34
2023-05-24T13:35:08.193Z,101545.53
2023-05-24T13:37:40.905Z,101539.53
2023-05-24T13:40:12.547Z,101526.97
2023-05-24T13:42:43.924Z,101544.25
2023-05-24T13:45:16.731Z,101546.44
2023-05-24T13:47:48.333Z,101545.03
2023-05-24T13:50:22.669Z,101541.59
2023-05-24T13:52:54.032Z,101543.25
2023-05-24T13:55:25.483Z,101525.44
2023-05-24T13:57:57.324Z,101520.53
2023-05-24T14:00:28.717Z,101543.22
2023-05-24T14:03:00.384Z,101542.06
2023-05-24T14:05:32.355Z,101538.06
2023-05-24T14:08:06.547Z,101545.53
2023-05-24T14:10:38.142Z,101549.91
2023-05-24T14:15:44.794Z,101532.63
2023-05-24T14:18:16.680Z,101550.16
2023-05-24T14:20:48.140Z,101549.38
2023-05-24T14:23:19.444Z,101539.16
2023-05-24T14:25:52.102Z,101555.25
2023-05-24T14:28:23.486Z,101551.63
2023-05-24T14:30:54.800Z,101555.16
2023-05-24T14:33:26.232Z,101559.16
2023-05-24T14:35:57.725Z,101550.78
2023-05-24T14:38:29.161Z,101551.81
2023-05-24T14:41:01.536Z,101552.53
2023-05-24T14:43:33.222Z,101564.00
2023-05-24T14:46:04.936Z,101560.53
2023-05-24T14:48:37.255Z,101561.53
2023-05-24T14:51:08.814Z,101547.69
2023-05-24T14:53:40.201Z,101569.97
2023-05-24T14:56:13.984Z,101567.19
2023-05-24T14:58:45.559Z,101576.53
2023-05-24T15:01:17.055Z,101577.09
2023-05-24T15:03:48.654Z,101575.84
2023-05-24T15:06:20.038Z,101577.03
2023-05-24T15:08:52.050Z,101576.00
2023-05-24T15:11:23.377Z,101580.00
2023-05-24T15:13:58.543Z,101575.72
2023-05-24T15:16:30.024Z,101576.97
2023-05-24T15:19:01.392Z,101576.47
2023-05-24T15:21:32.803Z,101572.75
2023-05-24T15:24:04.251Z,101574.00
2023-05-24T15:26:35.630Z,101574.41
2023-05-24T15:29:07.094Z,101572.94
2023-05-24T15:31:38.497Z,101572.94
2023-05-24T15:34:09.967Z,101566.41
2023-05-24T15:36:41.433Z,101572.75
2023-05-24T15:39:12.740Z,101572.34
2023-05-24T15:41:44.148Z,101571.41
2023-05-24T15:44:15.490Z,101563.72
2023-05-24T15:46:47.631Z,101560.22
2023-05-24T15:49:19.071Z,101560.78
2023-05-24T15:54:24.721Z,101567.44
2023-05-24T15:56:56.113Z,101572.75
2023-05-24T15:59:28.216Z,101568.31
2023-05-24T16:01:59.585Z,101563.47
2023-05-24T16:04:31.588Z,101537.13
2023-05-24T16:07:02.993Z,101561.53
2023-05-24T16:09:34.472Z,101568.38
2023-05-24T16:14:38.439Z,101557.69
2023-05-24T16:17:10.332Z,101550.59
2023-05-24T16:19:41.897Z,101554.16
2023-05-24T16:22:13.233Z,101563.22
2023-05-24T16:24:44.710Z,101566.44
2023-05-24T16:27:16.079Z,101562.09
2023-05-24T16:29:49.207Z,101568.31
2023-05-24T16:32:20.549Z,101546.50
2023-05-24T16:34:56.117Z,101568.56
2023-05-24T16:37:28.372Z,101564.25
2023-05-24T16:40:00.014Z,101560.22
2023-05-24T16:42:31.373Z,101568.91
2023-05-24T16:45:02.818Z,101566.97
2023-05-24T16:47:34.287Z,101557.63
2023-05-24T16:50:06.630Z,101567.38
2023-05-24T16:52:37.944Z,101566.50
2023-05-24T16:55:10.614Z,101568.25
2023-05-24T16:57:42.127Z,101567.47
2023-05-24T17:00:15.258Z,101570.88
2023-05-24T17:02:46.754Z,101567.16
2023-05-24T17:05:18.149Z,101565.50
2023-05-24T17:07:49.624Z,101566.63
2023-05-24T17:10:21.579Z,101576.66
2023-05-24T17:12:56.780Z,101574.97
2023-05-24T17:15:29.554Z,101576.72
2023-05-24T17:18:01.268Z,101572.25
2023-05-24T17:20:33.951Z,101575.94
2023-05-24T17:23:05.831Z,101574.22
2023-05-24T17:25:37.682Z,101568.75
2023-05-24T17:28:09.302Z,101574.00
2023-05-24T17:30:41.126Z,101577.34
2023-05-24T17:33:13.474Z,101571.16
2023-05-24T17:35:45.111Z,101573.22
2023-05-24T17:38:17.054Z,101576.06
2023-05-24T17:40:51.816Z,101583.34
2023-05-24T17:43:23.605Z,101586.88
2023-05-24T17:46:08.711Z,101573.44
2023-05-24T17:48:41.161Z,101585.03
2023-05-24T17:51:12.774Z,101582.31
2023-05-24T17:53:44.835Z,101579.09
2023-05-24T17:56:16.252Z,101588.81
2023-05-24T17:58:47.936Z,101592.47
2023-05-24T18:01:19.411Z,101600.69
2023-05-24T18:03:50.897Z,101611.69
2023-05-24T18:06:22.230Z,101593.56
2023-05-24T18:08:53.924Z,101601.88
2023-05-24T18:11:25.249Z,101611.81
2023-05-24T18:13:57.238Z,101610.22
2023-05-24T18:16:28.648Z,101616.72
2023-05-24T18:19:00.190Z,101616.00
2023-05-24T18:21:32.324Z,101601.91
2023-05-24T18:24:03.751Z,101608.25
2023-05-24T18:26:35.452Z,101604.13
2023-05-24T18:29:06.800Z,101585.06
2023-05-24T18:31:38.177Z,101591.50
2023-05-24T18:34:09.705Z,101609.44
2023-05-24T18:36:41.179Z,101610.59
2023-05-24T18:39:12.494Z,101614.38
2023-05-24T18:41:44.009Z,101616.41
2023-05-24T18:44:15.515Z,101603.31
2023-05-24T18:46:47.010Z,101609.59
2023-05-24T18:49:18.461Z,101623.16
2023-05-24T18:51:49.921Z,101613.50
2023-05-24T18:54:21.414Z,101617.25
2023-05-24T18:56:52.906Z,101609.41
2023-05-24T18:59:28.943Z,101615.72
2023-05-24T19:02:03.460Z,101624.69
2023-05-24T19:04:34.837Z,101631.06
2023-05-24T19:07:06.300Z,101623.22
2023-05-24T19:09:37.699Z,101621.66
2023-05-24T19:12:11.428Z,101606.81
2023-05-24T19:14:43.157Z,101597.22
2023-05-24T19:17:14.553Z,101621.16
2023-05-24T19:19:46.355Z,101621.28
2023-05-24T19:22:17.690Z,101606.41
2023-05-24T19:24:49.068Z,101613.66
2023-05-24T19:27:20.528Z,101622.59
2023-05-24T19:29:52.095Z,101630.66
2023-05-24T19:32:23.579Z,101642.19
2023-05-24T19:34:54.982Z,101646.75
2023-05-24T19:37:26.331Z,101631.88
2023-05-24T19:39:57.826Z,101653.16
2023-05-24T19:42:29.298Z,101656.75
2023-05-24T19:45:00.901Z,101655.09
2023-05-24T19:47:32.417Z,101642.81
2023-05-24T19:50:04.002Z,101654.31
2023-05-24T19:52:35.357Z,101661.50
2023-05-24T19:55:08.154Z,101658.84
2023-05-24T19:57:39.640Z,101666.03
2023-05-24T20:00:12.358Z,101664.31
2023-05-24T20:02:43.861Z,101663.50
2023-05-24T20:05:17.248Z,101658.25
2023-05-24T20:07:48.599Z,101680.38
2023-05-24T20:10:20.052Z,101683.94
2023-05-24T20:12:51.598Z,101676.03
2023-05-24T20:15:27.583Z,101684.03
2023-05-24T20:17:59.281Z,101684.13
2023-05-24T20:20:31.025Z,101696.53
2023-05-24T20:23:02.527Z,101699.19
2023-05-24T20:25:33.856Z,101705.44
2023-05-24T20:28:12.790Z,101709.00
2023-05-24T20:30:50.234Z,101696.66
2023-05-24T20:33:21.634Z,101703.75
2023-05-24T20:35:54.392Z,101686.97
2023-05-24T20:38:25.737Z,101721.47
2023-05-24T20:40:57.110Z,101710.00
2023-05-24T20:43:28.434Z,101716.19
2023-05-24T20:46:00.039Z,101720.63
2023-05-24T20:48:31.454Z,101719.75
2023-05-24T20:51:03.382Z,101719.75
2023-05-24T20:53:34.949Z,101724.19
2023-05-24T20:56:06.448Z,101720.66
2023-05-24T20:58:39.710Z,101719.78
2023-05-24T21:01:11.255Z,101723.34
2023-05-24T21:03:42.649Z,101732.19
2023-05-24T21:06:14.185Z,101716.31
2023-05-24T21:08:45.755Z,101736.63
2023-05-24T21:11:17.213Z,101724.25
2023-05-24T21:13:48.536Z,101734.00
2023-05-24T21:16:19.910Z,101710.97
2023-05-24T21:18:51.729Z,101723.34
2023-05-24T21:21:23.620Z,101739.25
2023-05-24T21:23:55.628Z,101730.41
2023-05-24T21:26:27.098Z,101746.31
2023-05-24T21:28:58.457Z,101739.25
2023-05-24T21:31:30.241Z,101741.91
2023-05-24T21:34:01.643Z,101749.84
2023-05-24T21:36:33.143Z,101741.91
2023-05-24T21:39:07.951Z,101741.03
2023-05-24T21:41:39.337Z,101736.63
2023-05-24T21:44:10.911Z,101745.47
2023-05-24T21:46:42.320Z,101737.53
2023-05-24T21:49:13.708Z,101740.13
2023-05-24T21:51:45.211Z,101730.41
2023-05-24T21:54:16.661Z,101733.94
2023-05-24T21:56:48.030Z,101753.38
2023-05-24T21:59:21.189Z,101749.84
2023-05-24T22:01:52.654Z,101741.88
2023-05-24T22:04:24.065Z,101748.97
2023-05-24T22:06:55.502Z,101764.88
2023-05-24T22:09:26.842Z,101751.59
2023-05-24T22:11:58.170Z,101768.38
2023-05-24T22:14:29.563Z,101774.59
2023-05-24T22:17:00.936Z,101783.44
2023-05-24T22:19:39.577Z,101773.72
2023-05-24T22:22:12.393Z,101787.00
2023-05-24T22:24:43.883Z,101785.22
2023-05-24T22:27:16.871Z,101759.59
2023-05-24T22:29:48.219Z,101793.19
2023-05-24T22:32:19.629Z,101784.34
2023-05-24T22:34:51.032Z,101788.75
2023-05-24T22:37:22.364Z,101794.06
2023-05-24T22:39:53.672Z,101787.88
2023-05-24T22:42:25.067Z,101787.88
2023-05-24T22:44:56.421Z,101789.66
2023-05-24T22:47:28.692Z,101781.69
2023-05-24T22:50:01.887Z,101790.50
2023-05-24T22:52:36.432Z,101791.41
2023-05-24T22:55:08.428Z,101786.09
2023-05-24T22:57:39.796Z,101799.38
2023-05-24T23:00:11.886Z,101807.31
2023-05-24T23:02:43.296Z,101812.63
2023-05-24T23:05:14.831Z,101806.44
2023-05-24T23:07:48.446Z,101809.97
2023-05-24T23:10:19.843Z,101809.09
2023-05-24T23:12:51.638Z,101791.41
2023-05-24T23:15:22.964Z,101803.78
2023-05-24T23:17:56.317Z,101787.88
2023-05-24T23:20:27.737Z,101786.97
2023-05-24T23:23:02.553Z,101800.22
2023-05-24T23:25:34.733Z,101801.09
2023-05-24T23:28:06.485Z,101796.69
2023-05-24T23:30:37.842Z,101802.00
2023-05-24T23:33:09.334Z,101801.09
2023-05-24T23:35:40.767Z,101796.69
2023-05-24T23:38:13.615Z,101772.81
2023-05-24T23:40:44.948Z,101797.56
2023-05-24T23:43:16.512Z,101796.66
2023-05-24T23:45:47.838Z,101795.78
2023-05-24T23:48:20.400Z,101794.91
2023-05-24T23:50:54.349Z,101787.81
2023-05-24T23:53:26.228Z,101786.94
2023-05-24T23:55:57.553Z,101787.81
2023-05-24T23:58:28.915Z,101782.50
